sensor_id;sensor_type;location;lat;lon;timestamp;P1;durP1;ratioP1;P2;durP2;ratioP2
16286;SDS011;8251;53.568;10.018;2023-09-30T00:01:26;10.03;;;2.80;;
16286;SDS011;8251;53.568;10.018;2023-09-30T00:03:53;9.63;;;2.67;;
16286;SDS011;8251;53.568;10.018;2023-09-30T00:06:21;14.33;;;3.90;;
16286;SDS011;8251;53.568;10.018;2023-09-30T00:08:49;10.63;;;2.73;;
16286;SDS011;8251;53.568;10.018;2023-09-30T00:11:19;11.17;;;4.60;;
16286;SDS011;8251;53.568;10.018;2023-09-30T00:13:46;9.57;;;2.83;;
16286;SDS011;8251;53.568;10.018;2023-09-30T00:16:14;11.90;;;2.73;;
16286;SDS011;8251;53.568;10.018;2023-09-30T00:18:48;11.77;;;3.00;;
16286;SDS011;8251;53.568;10.018;2023-09-30T00:21:15;11.97;;;2.93;;
16286;SDS011;8251;53.568;10.018;2023-09-30T00:23:42;9.30;;;2.53;;
16286;SDS011;8251;53.568;10.018;2023-09-30T00:26:11;14.97;;;4.73;;
16286;SDS011;8251;53.568;10.018;2023-09-30T00:28:39;7.33;;;2.60;;
16286;SDS011;8251;53.568;10.018;2023-09-30T00:31:09;11.33;;;2.93;;
16286;SDS011;8251;53.568;10.018;2023-09-30T00:33:39;11.97;;;3.50;;
16286;SDS011;8251;53.568;10.018;2023-09-30T00:36:09;11.43;;;2.90;;
16286;SDS011;8251;53.568;10.018;2023-09-30T00:38:39;8.13;;;2.30;;
16286;SDS011;8251;53.568;10.018;2023-09-30T00:41:06;8.77;;;3.20;;
16286;SDS011;8251;53.568;10.018;2023-09-30T00:43:35;16.57;;;3.50;;
16286;SDS011;8251;53.568;10.018;2023-09-30T00:46:03;9.87;;;2.50;;
16286;SDS011;8251;53.568;10.018;2023-09-30T00:48:39;12.70;;;2.50;;
16286;SDS011;8251;53.568;10.018;2023-09-30T00:51:10;10.37;;;2.73;;
16286;SDS011;8251;53.568;10.018;2023-09-30T00:53:37;10.53;;;2.20;;
16286;SDS011;8251;53.568;10.018;2023-09-30T00:56:04;16.00;;;2.80;;
16286;SDS011;8251;53.568;10.018;2023-09-30T00:58:32;9.87;;;2.77;;
16286;SDS011;8251;53.568;10.018;2023-09-30T01:01:02;7.60;;;2.60;;
16286;SDS011;8251;53.568;10.018;2023-09-30T01:03:29;9.30;;;2.40;;
16286;SDS011;8251;53.568;10.018;2023-09-30T01:05:56;9.83;;;2.40;;
16286;SDS011;8251;53.568;10.018;2023-09-30T01:08:23;15.20;;;3.53;;
16286;SDS011;8251;53.568;10.018;2023-09-30T01:11:00;14.57;;;3.33;;
16286;SDS011;8251;53.568;10.018;2023-09-30T01:13:31;11.40;;;2.23;;
16286;SDS011;8251;53.568;10.018;2023-09-30T01:16:03;14.20;;;3.13;;
16286;SDS011;8251;53.568;10.018;2023-09-30T01:18:31;9.07;;;2.70;;
16286;SDS011;8251;53.568;10.018;2023-09-30T01:20:58;17.87;;;2.80;;
16286;SDS011;8251;53.568;10.018;2023-09-30T01:23:29;7.43;;;2.30;;
16286;SDS011;8251;53.568;10.018;2023-09-30T01:25:56;11.30;;;2.73;;
16286;SDS011;8251;53.568;10.018;2023-09-30T01:28:24;11.83;;;3.10;;
16286;SDS011;8251;53.568;10.018;2023-09-30T01:30:51;11.83;;;2.57;;
16286;SDS011;8251;53.568;10.018;2023-09-30T01:33:18;12.20;;;2.60;;
16286;SDS011;8251;53.568;10.018;2023-09-30T01:35:45;9.07;;;2.33;;
16286;SDS011;8251;53.568;10.018;2023-09-30T01:38:12;10.60;;;2.60;;
16286;SDS011;8251;53.568;10.018;2023-09-30T01:40:40;12.10;;;2.40;;
16286;SDS011;8251;53.568;10.018;2023-09-30T01:43:09;8.77;;;2.30;;
16286;SDS011;8251;53.568;10.018;2023-09-30T01:45:38;11.87;;;2.63;;
16286;SDS011;8251;53.568;10.018;2023-09-30T01:48:05;9.00;;;2.87;;
16286;SDS011;8251;53.568;10.018;2023-09-30T01:50:35;15.43;;;3.20;;
16286;SDS011;8251;53.568;10.018;2023-09-30T01:53:02;9.30;;;2.27;;
16286;SDS011;8251;53.568;10.018;2023-09-30T01:55:32;7.60;;;2.30;;
16286;SDS011;8251;53.568;10.018;2023-09-30T01:58:00;10.93;;;2.97;;
16286;SDS011;8251;53.568;10.018;2023-09-30T02:00:28;15.87;;;2.67;;
16286;SDS011;8251;53.568;10.018;2023-09-30T02:02:58;15.97;;;2.60;;
16286;SDS011;8251;53.568;10.018;2023-09-30T02:05:28;11.30;;;2.30;;
16286;SDS011;8251;53.568;10.018;2023-09-30T02:07:55;10.10;;;3.23;;
16286;SDS011;8251;53.568;10.018;2023-09-30T02:10:22;10.03;;;2.50;;
16286;SDS011;8251;53.568;10.018;2023-09-30T02:12:50;10.57;;;3.10;;
16286;SDS011;8251;53.568;10.018;2023-09-30T02:15:18;9.20;;;2.67;;
16286;SDS011;8251;53.568;10.018;2023-09-30T02:17:45;9.10;;;2.27;;
16286;SDS011;8251;53.568;10.018;2023-09-30T02:20:13;13.87;;;2.53;;
16286;SDS011;8251;53.568;10.018;2023-09-30T02:22:47;11.00;;;2.70;;
16286;SDS011;8251;53.568;10.018;2023-09-30T02:25:14;12.60;;;2.50;;
16286;SDS011;8251;53.568;10.018;2023-09-30T02:27:42;12.80;;;3.57;;
16286;SDS011;8251;53.568;10.018;2023-09-30T02:30:10;14.80;;;3.47;;
16286;SDS011;8251;53.568;10.018;2023-09-30T02:32:42;10.93;;;3.57;;
16286;SDS011;8251;53.568;10.018;2023-09-30T02:35:11;18.80;;;3.50;;
16286;SDS011;8251;53.568;10.018;2023-09-30T02:37:40;12.57;;;3.97;;
16286;SDS011;8251;53.568;10.018;2023-09-30T02:40:07;14.33;;;2.80;;
16286;SDS011;8251;53.568;10.018;2023-09-30T02:42:35;10.93;;;2.83;;
16286;SDS011;8251;53.568;10.018;2023-09-30T02:45:03;14.47;;;3.00;;
16286;SDS011;8251;53.568;10.018;2023-09-30T02:47:30;14.57;;;3.37;;
16286;SDS011;8251;53.568;10.018;2023-09-30T02:49:59;10.27;;;3.33;;
16286;SDS011;8251;53.568;10.018;2023-09-30T02:52:29;13.20;;;3.30;;
16286;SDS011;8251;53.568;10.018;2023-09-30T02:54:59;8.53;;;3.47;;
16286;SDS011;8251;53.568;10.018;2023-09-30T02:57:26;11.13;;;2.87;;
16286;SDS011;8251;53.568;10.018;2023-09-30T02:59:53;11.53;;;3.20;;
16286;SDS011;8251;53.568;10.018;2023-09-30T03:02:37;13.23;;;3.23;;
16286;SDS011;8251;53.568;10.018;2023-09-30T03:05:06;10.47;;;2.60;;
16286;SDS011;8251;53.568;10.018;2023-09-30T03:07:33;12.53;;;3.87;;
16286;SDS011;8251;53.568;10.018;2023-09-30T03:10:00;16.23;;;3.07;;
16286;SDS011;8251;53.568;10.018;2023-09-30T03:12:30;8.67;;;2.20;;
16286;SDS011;8251;53.568;10.018;2023-09-30T03:14:57;11.90;;;2.20;;
16286;SDS011;8251;53.568;10.018;2023-09-30T03:17:24;10.53;;;2.90;;
16286;SDS011;8251;53.568;10.018;2023-09-30T03:19:51;12.07;;;3.00;;
16286;SDS011;8251;53.568;10.018;2023-09-30T03:22:20;8.90;;;2.57;;
16286;SDS011;8251;53.568;10.018;2023-09-30T03:24:47;11.23;;;3.00;;
16286;SDS011;8251;53.568;10.018;2023-09-30T03:27:14;9.27;;;3.00;;
16286;SDS011;8251;53.568;10.018;2023-09-30T03:29:48;11.77;;;3.10;;
16286;SDS011;8251;53.568;10.018;2023-09-30T03:32:15;12.30;;;2.90;;
16286;SDS011;8251;53.568;10.018;2023-09-30T03:34:42;15.17;;;3.13;;
16286;SDS011;8251;53.568;10.018;2023-09-30T03:37:11;10.77;;;2.93;;
16286;SDS011;8251;53.568;10.018;2023-09-30T03:39:40;10.97;;;2.70;;
16286;SDS011;8251;53.568;10.018;2023-09-30T03:42:10;9.40;;;2.50;;
16286;SDS011;8251;53.568;10.018;2023-09-30T03:44:36;12.87;;;3.03;;
16286;SDS011;8251;53.568;10.018;2023-09-30T03:47:04;16.13;;;3.00;;
16286;SDS011;8251;53.568;10.018;2023-09-30T03:49:34;10.93;;;2.60;;
16286;SDS011;8251;53.568;10.018;2023-09-30T03:52:07;9.67;;;2.80;;
16286;SDS011;8251;53.568;10.018;2023-09-30T03:54:34;12.67;;;3.30;;
16286;SDS011;8251;53.568;10.018;2023-09-30T03:57:08;9.23;;;2.77;;
16286;SDS011;8251;53.568;10.018;2023-09-30T03:59:37;10.67;;;2.90;;
16286;SDS011;8251;53.568;10.018;2023-09-30T04:02:04;7.77;;;2.20;;
16286;SDS011;8251;53.568;10.018;2023-09-30T04:04:33;12.77;;;4.30;;
16286;SDS011;8251;53.568;10.018;2023-09-30T04:07:02;14.33;;;3.20;;
16286;SDS011;8251;53.568;10.018;2023-09-30T04:09:35;12.70;;;3.10;;
16286;SDS011;8251;53.568;10.018;2023-09-30T04:12:02;14.13;;;4.00;;
16286;SDS011;8251;53.568;10.018;2023-09-30T04:14:30;10.40;;;3.07;;
16286;SDS011;8251;53.568;10.018;2023-09-30T04:17:00;12.67;;;3.53;;
16286;SDS011;8251;53.568;10.018;2023-09-30T04:19:27;14.87;;;3.67;;
16286;SDS011;8251;53.568;10.018;2023-09-30T04:21:58;12.67;;;3.13;;
16286;SDS011;8251;53.568;10.018;2023-09-30T04:24:25;14.43;;;3.67;;
16286;SDS011;8251;53.568;10.018;2023-09-30T04:26:53;11.20;;;3.13;;
16286;SDS011;8251;53.568;10.018;2023-09-30T04:29:28;10.53;;;3.13;;
16286;SDS011;8251;53.568;10.018;2023-09-30T04:31:57;14.83;;;4.30;;
16286;SDS011;8251;53.568;10.018;2023-09-30T04:34:23;10.57;;;3.27;;
16286;SDS011;8251;53.568;10.018;2023-09-30T04:36:52;17.90;;;3.30;;
16286;SDS011;8251;53.568;10.018;2023-09-30T04:39:19;14.20;;;4.30;;
16286;SDS011;8251;53.568;10.018;2023-09-30T04:41:46;10.20;;;3.30;;
16286;SDS011;8251;53.568;10.018;2023-09-30T04:44:13;8.63;;;3.00;;
16286;SDS011;8251;53.568;10.018;2023-09-30T04:46:43;11.20;;;3.40;;
16286;SDS011;8251;53.568;10.018;2023-09-30T04:49:14;12.83;;;3.10;;
16286;SDS011;8251;53.568;10.018;2023-09-30T04:51:42;12.80;;;2.87;;
16286;SDS011;8251;53.568;10.018;2023-09-30T04:54:09;10.07;;;3.43;;
16286;SDS011;8251;53.568;10.018;2023-09-30T04:56:36;13.70;;;2.87;;
16286;SDS011;8251;53.568;10.018;2023-09-30T04:59:04;12.10;;;4.57;;
16286;SDS011;8251;53.568;10.018;2023-09-30T05:01:31;13.53;;;3.87;;
16286;SDS011;8251;53.568;10.018;2023-09-30T05:03:57;11.97;;;3.07;;
16286;SDS011;8251;53.568;10.018;2023-09-30T05:06:26;12.70;;;2.67;;
16286;SDS011;8251;53.568;10.018;2023-09-30T05:08:53;10.37;;;3.27;;
16286;SDS011;8251;53.568;10.018;2023-09-30T05:11:20;13.50;;;4.03;;
16286;SDS011;8251;53.568;10.018;2023-09-30T05:13:47;10.10;;;2.90;;
16286;SDS011;8251;53.568;10.018;2023-09-30T05:16:14;9.73;;;2.83;;
16286;SDS011;8251;53.568;10.018;2023-09-30T05:18:44;18.33;;;3.50;;
16286;SDS011;8251;53.568;10.018;2023-09-30T05:21:11;10.93;;;3.27;;
16286;SDS011;8251;53.568;10.018;2023-09-30T05:23:39;10.27;;;3.33;;
16286;SDS011;8251;53.568;10.018;2023-09-30T05:26:06;15.03;;;2.90;;
16286;SDS011;8251;53.568;10.018;2023-09-30T05:28:33;10.73;;;3.10;;
16286;SDS011;8251;53.568;10.018;2023-09-30T05:31:07;21.90;;;3.90;;
16286;SDS011;8251;53.568;10.018;2023-09-30T05:33:34;12.97;;;3.47;;
16286;SDS011;8251;53.568;10.018;2023-09-30T05:36:02;13.37;;;4.27;;
16286;SDS011;8251;53.568;10.018;2023-09-30T05:38:30;19.07;;;3.20;;
16286;SDS011;8251;53.568;10.018;2023-09-30T05:40:58;12.27;;;3.20;;
16286;SDS011;8251;53.568;10.018;2023-09-30T05:43:26;10.43;;;3.20;;
16286;SDS011;8251;53.568;10.018;2023-09-30T05:45:53;16.77;;;3.53;;
16286;SDS011;8251;53.568;10.018;2023-09-30T05:48:20;19.60;;;3.97;;
16286;SDS011;8251;53.568;10.018;2023-09-30T05:50:48;14.23;;;3.17;;
16286;SDS011;8251;53.568;10.018;2023-09-30T05:53:15;13.43;;;2.77;;
16286;SDS011;8251;53.568;10.018;2023-09-30T05:55:42;12.90;;;2.87;;
16286;SDS011;8251;53.568;10.018;2023-09-30T05:58:12;11.43;;;2.87;;
16286;SDS011;8251;53.568;10.018;2023-09-30T06:00:41;16.47;;;4.70;;
16286;SDS011;8251;53.568;10.018;2023-09-30T06:03:09;10.47;;;3.10;;
16286;SDS011;8251;53.568;10.018;2023-09-30T06:05:39;12.70;;;2.93;;
16286;SDS011;8251;53.568;10.018;2023-09-30T06:08:07;12.17;;;3.17;;
16286;SDS011;8251;53.568;10.018;2023-09-30T06:10:39;20.30;;;3.57;;
16286;SDS011;8251;53.568;10.018;2023-09-30T06:13:08;10.80;;;3.20;;
16286;SDS011;8251;53.568;10.018;2023-09-30T06:15:43;6.43;;;2.97;;
16286;SDS011;8251;53.568;10.018;2023-09-30T06:18:15;13.57;;;3.37;;
16286;SDS011;8251;53.568;10.018;2023-09-30T06:20:42;13.97;;;2.80;;
16286;SDS011;8251;53.568;10.018;2023-09-30T06:23:09;13.60;;;2.77;;
16286;SDS011;8251;53.568;10.018;2023-09-30T06:25:36;9.47;;;3.00;;
16286;SDS011;8251;53.568;10.018;2023-09-30T06:28:05;12.43;;;2.87;;
16286;SDS011;8251;53.568;10.018;2023-09-30T06:30:33;7.83;;;2.83;;
16286;SDS011;8251;53.568;10.018;2023-09-30T06:33:03;12.63;;;3.47;;
16286;SDS011;8251;53.568;10.018;2023-09-30T06:35:31;18.90;;;4.63;;
16286;SDS011;8251;53.568;10.018;2023-09-30T06:38:02;18.20;;;4.33;;
16286;SDS011;8251;53.568;10.018;2023-09-30T06:40:31;7.93;;;3.00;;
16286;SDS011;8251;53.568;10.018;2023-09-30T06:42:59;14.00;;;3.10;;
16286;SDS011;8251;53.568;10.018;2023-09-30T06:45:26;13.67;;;3.07;;
16286;SDS011;8251;53.568;10.018;2023-09-30T06:47:53;9.83;;;2.37;;
16286;SDS011;8251;53.568;10.018;2023-09-30T06:50:22;10.67;;;3.27;;
16286;SDS011;8251;53.568;10.018;2023-09-30T06:52:49;16.43;;;3.50;;
16286;SDS011;8251;53.568;10.018;2023-09-30T06:55:19;11.37;;;3.30;;
16286;SDS011;8251;53.568;10.018;2023-09-30T06:57:48;22.93;;;4.93;;
16286;SDS011;8251;53.568;10.018;2023-09-30T07:00:16;10.07;;;2.97;;
16286;SDS011;8251;53.568;10.018;2023-09-30T07:02:43;7.60;;;2.53;;
16286;SDS011;8251;53.568;10.018;2023-09-30T07:05:13;15.40;;;2.70;;
16286;SDS011;8251;53.568;10.018;2023-09-30T07:07:42;11.33;;;3.47;;
16286;SDS011;8251;53.568;10.018;2023-09-30T07:10:09;11.93;;;2.50;;
16286;SDS011;8251;53.568;10.018;2023-09-30T07:12:40;12.57;;;3.10;;
16286;SDS011;8251;53.568;10.018;2023-09-30T07:15:10;8.10;;;2.50;;
16286;SDS011;8251;53.568;10.018;2023-09-30T07:17:40;12.27;;;3.83;;
16286;SDS011;8251;53.568;10.018;2023-09-30T07:20:09;10.67;;;2.83;;
16286;SDS011;8251;53.568;10.018;2023-09-30T07:22:36;9.17;;;2.63;;
16286;SDS011;8251;53.568;10.018;2023-09-30T07:25:05;13.10;;;3.20;;
16286;SDS011;8251;53.568;10.018;2023-09-30T07:27:32;10.37;;;3.10;;
16286;SDS011;8251;53.568;10.018;2023-09-30T07:30:00;11.20;;;2.93;;
16286;SDS011;8251;53.568;10.018;2023-09-30T07:32:27;8.20;;;2.90;;
16286;SDS011;8251;53.568;10.018;2023-09-30T07:34:54;10.03;;;3.33;;
16286;SDS011;8251;53.568;10.018;2023-09-30T07:37:21;9.33;;;2.07;;
16286;SDS011;8251;53.568;10.018;2023-09-30T07:39:48;35.90;;;4.20;;
16286;SDS011;8251;53.568;10.018;2023-09-30T07:42:17;8.13;;;2.37;;
16286;SDS011;8251;53.568;10.018;2023-09-30T07:44:43;13.80;;;3.10;;
16286;SDS011;8251;53.568;10.018;2023-09-30T07:47:11;13.13;;;3.80;;
16286;SDS011;8251;53.568;10.018;2023-09-30T07:49:38;11.57;;;2.57;;
16286;SDS011;8251;53.568;10.018;2023-09-30T07:52:06;8.03;;;2.30;;
16286;SDS011;8251;53.568;10.018;2023-09-30T07:54:36;10.37;;;3.03;;
16286;SDS011;8251;53.568;10.018;2023-09-30T07:57:05;9.23;;;2.27;;
16286;SDS011;8251;53.568;10.018;2023-09-30T07:59:33;7.50;;;2.53;;
16286;SDS011;8251;53.568;10.018;2023-09-30T08:02:00;8.67;;;2.40;;
16286;SDS011;8251;53.568;10.018;2023-09-30T08:04:29;9.83;;;2.20;;
16286;SDS011;8251;53.568;10.018;2023-09-30T08:06:57;12.47;;;4.57;;
16286;SDS011;8251;53.568;10.018;2023-09-30T08:09:24;8.80;;;2.43;;
16286;SDS011;8251;53.568;10.018;2023-09-30T08:11:59;10.73;;;2.20;;
16286;SDS011;8251;53.568;10.018;2023-09-30T08:14:25;8.23;;;2.17;;
16286;SDS011;8251;53.568;10.018;2023-09-30T08:16:54;8.53;;;2.20;;
16286;SDS011;8251;53.568;10.018;2023-09-30T08:19:21;8.03;;;2.40;;
16286;SDS011;8251;53.568;10.018;2023-09-30T08:21:48;8.97;;;2.20;;
16286;SDS011;8251;53.568;10.018;2023-09-30T08:24:15;9.73;;;2.23;;
16286;SDS011;8251;53.568;10.018;2023-09-30T08:26:42;7.97;;;2.30;;
16286;SDS011;8251;53.568;10.018;2023-09-30T08:29:09;7.67;;;2.27;;
16286;SDS011;8251;53.568;10.018;2023-09-30T08:31:36;12.17;;;2.73;;
16286;SDS011;8251;53.568;10.018;2023-09-30T08:34:06;8.97;;;1.70;;
16286;SDS011;8251;53.568;10.018;2023-09-30T08:36:33;7.47;;;1.80;;
16286;SDS011;8251;53.568;10.018;2023-09-30T08:39:00;14.00;;;2.67;;
16286;SDS011;8251;53.568;10.018;2023-09-30T08:41:30;8.40;;;2.47;;
16286;SDS011;8251;53.568;10.018;2023-09-30T08:44:01;12.53;;;2.47;;
16286;SDS011;8251;53.568;10.018;2023-09-30T08:47:01;12.00;;;2.37;;
16286;SDS011;8251;53.568;10.018;2023-09-30T08:49:40;19.23;;;3.00;;
16286;SDS011;8251;53.568;10.018;2023-09-30T08:52:09;6.77;;;2.30;;
16286;SDS011;8251;53.568;10.018;2023-09-30T08:54:36;13.07;;;3.10;;
16286;SDS011;8251;53.568;10.018;2023-09-30T08:57:03;8.47;;;2.20;;
16286;SDS011;8251;53.568;10.018;2023-09-30T08:59:31;19.53;;;3.67;;
16286;SDS011;8251;53.568;10.018;2023-09-30T09:02:08;10.93;;;3.40;;
16286;SDS011;8251;53.568;10.018;2023-09-30T09:04:40;12.47;;;2.77;;
16286;SDS011;8251;53.568;10.018;2023-09-30T09:07:08;9.47;;;2.83;;
16286;SDS011;8251;53.568;10.018;2023-09-30T09:09:35;11.87;;;2.43;;
16286;SDS011;8251;53.568;10.018;2023-09-30T09:12:03;10.93;;;2.20;;
16286;SDS011;8251;53.568;10.018;2023-09-30T09:14:37;11.13;;;2.37;;
16286;SDS011;8251;53.568;10.018;2023-09-30T09:17:06;9.83;;;1.93;;
16286;SDS011;8251;53.568;10.018;2023-09-30T09:19:40;9.40;;;2.17;;
16286;SDS011;8251;53.568;10.018;2023-09-30T09:22:07;14.67;;;2.97;;
16286;SDS011;8251;53.568;10.018;2023-09-30T09:24:34;8.47;;;1.90;;
16286;SDS011;8251;53.568;10.018;2023-09-30T09:27:04;10.80;;;2.63;;
16286;SDS011;8251;53.568;10.018;2023-09-30T09:29:32;11.63;;;2.40;;
16286;SDS011;8251;53.568;10.018;2023-09-30T09:32:08;8.10;;;1.90;;
16286;SDS011;8251;53.568;10.018;2023-09-30T09:34:36;9.87;;;1.60;;
16286;SDS011;8251;53.568;10.018;2023-09-30T09:37:18;6.70;;;1.90;;
16286;SDS011;8251;53.568;10.018;2023-09-30T09:39:51;7.00;;;2.40;;
16286;SDS011;8251;53.568;10.018;2023-09-30T09:42:30;9.13;;;1.80;;
16286;SDS011;8251;53.568;10.018;2023-09-30T09:45:00;8.43;;;2.17;;
16286;SDS011;8251;53.568;10.018;2023-09-30T09:47:29;5.83;;;1.53;;
16286;SDS011;8251;53.568;10.018;2023-09-30T09:50:02;14.07;;;2.77;;
16286;SDS011;8251;53.568;10.018;2023-09-30T09:52:34;10.03;;;2.67;;
16286;SDS011;8251;53.568;10.018;2023-09-30T09:57:58;10.13;;;2.10;;
16286;SDS011;8251;53.568;10.018;2023-09-30T10:00:30;5.17;;;1.73;;
16286;SDS011;8251;53.568;10.018;2023-09-30T10:02:58;7.50;;;1.50;;
16286;SDS011;8251;53.568;10.018;2023-09-30T10:05:28;10.20;;;2.30;;
16286;SDS011;8251;53.568;10.018;2023-09-30T10:07:57;9.27;;;1.87;;
16286;SDS011;8251;53.568;10.018;2023-09-30T10:10:29;6.57;;;1.80;;
16286;SDS011;8251;53.568;10.018;2023-09-30T10:13:04;9.97;;;2.03;;
16286;SDS011;8251;53.568;10.018;2023-09-30T10:15:34;14.77;;;2.53;;
16286;SDS011;8251;53.568;10.018;2023-09-30T10:18:06;10.30;;;2.50;;
16286;SDS011;8251;53.568;10.018;2023-09-30T10:20:35;4.57;;;1.50;;
16286;SDS011;8251;53.568;10.018;2023-09-30T10:23:24;12.67;;;2.40;;
16286;SDS011;8251;53.568;10.018;2023-09-30T10:26:14;17.23;;;1.80;;
16286;SDS011;8251;53.568;10.018;2023-09-30T10:28:45;10.27;;;1.93;;
16286;SDS011;8251;53.568;10.018;2023-09-30T10:31:15;7.10;;;1.57;;
16286;SDS011;8251;53.568;10.018;2023-09-30T10:36:48;7.83;;;1.63;;
16286;SDS011;8251;53.568;10.018;2023-09-30T10:48:34;7.87;;;1.83;;
16286;SDS011;8251;53.568;10.018;2023-09-30T10:51:03;7.80;;;1.87;;
16286;SDS011;8251;53.568;10.018;2023-09-30T10:53:40;10.17;;;1.70;;
16286;SDS011;8251;53.568;10.018;2023-09-30T10:56:10;8.27;;;2.20;;
16286;SDS011;8251;53.568;10.018;2023-09-30T10:58:41;6.90;;;1.87;;
16286;SDS011;8251;53.568;10.018;2023-09-30T11:01:08;6.87;;;1.73;;
16286;SDS011;8251;53.568;10.018;2023-09-30T11:03:36;10.33;;;2.90;;
16286;SDS011;8251;53.568;10.018;2023-09-30T11:06:03;12.10;;;1.77;;
16286;SDS011;8251;53.568;10.018;2023-09-30T11:08:30;14.93;;;1.80;;
16286;SDS011;8251;53.568;10.018;2023-09-30T11:10:58;6.73;;;1.70;;
16286;SDS011;8251;53.568;10.018;2023-09-30T11:13:32;15.27;;;2.10;;
16286;SDS011;8251;53.568;10.018;2023-09-30T11:16:00;8.07;;;1.93;;
16286;SDS011;8251;53.568;10.018;2023-09-30T11:18:28;8.27;;;1.70;;
16286;SDS011;8251;53.568;10.018;2023-09-30T11:21:06;11.83;;;1.83;;
16286;SDS011;8251;53.568;10.018;2023-09-30T11:23:35;6.47;;;1.27;;
16286;SDS011;8251;53.568;10.018;2023-09-30T11:26:03;6.23;;;1.43;;
16286;SDS011;8251;53.568;10.018;2023-09-30T11:28:40;8.60;;;2.27;;
16286;SDS011;8251;53.568;10.018;2023-09-30T11:31:09;9.07;;;1.90;;
16286;SDS011;8251;53.568;10.018;2023-09-30T11:33:47;8.03;;;1.60;;
16286;SDS011;8251;53.568;10.018;2023-09-30T11:36:19;3.97;;;1.27;;
16286;SDS011;8251;53.568;10.018;2023-09-30T11:38:48;12.23;;;1.57;;
16286;SDS011;8251;53.568;10.018;2023-09-30T11:41:15;14.70;;;2.40;;
16286;SDS011;8251;53.568;10.018;2023-09-30T11:44:04;11.23;;;1.60;;
16286;SDS011;8251;53.568;10.018;2023-09-30T11:46:33;8.40;;;1.30;;
16286;SDS011;8251;53.568;10.018;2023-09-30T11:49:29;12.03;;;3.23;;
16286;SDS011;8251;53.568;10.018;2023-09-30T11:51:58;11.20;;;2.23;;
16286;SDS011;8251;53.568;10.018;2023-09-30T11:54:30;13.30;;;1.83;;
16286;SDS011;8251;53.568;10.018;2023-09-30T12:00:31;12.00;;;2.20;;
16286;SDS011;8251;53.568;10.018;2023-09-30T12:02:59;11.43;;;1.60;;
16286;SDS011;8251;53.568;10.018;2023-09-30T12:05:29;10.25;;;1.60;;
16286;SDS011;8251;53.568;10.018;2023-09-30T12:07:58;6.60;;;1.33;;
16286;SDS011;8251;53.568;10.018;2023-09-30T12:10:25;5.40;;;1.65;;
16286;SDS011;8251;53.568;10.018;2023-09-30T12:12:53;6.25;;;1.27;;
16286;SDS011;8251;53.568;10.018;2023-09-30T12:15:21;8.55;;;1.75;;
16286;SDS011;8251;53.568;10.018;2023-09-30T12:17:49;6.90;;;1.80;;
16286;SDS011;8251;53.568;10.018;2023-09-30T12:20:16;5.38;;;1.70;;
16286;SDS011;8251;53.568;10.018;2023-09-30T12:22:44;6.32;;;1.52;;
16286;SDS011;8251;53.568;10.018;2023-09-30T12:25:11;4.60;;;1.55;;
16286;SDS011;8251;53.568;10.018;2023-09-30T12:27:38;10.45;;;1.70;;
16286;SDS011;8251;53.568;10.018;2023-09-30T12:30:08;8.48;;;1.48;;
16286;SDS011;8251;53.568;10.018;2023-09-30T12:32:38;6.20;;;1.80;;
16286;SDS011;8251;53.568;10.018;2023-09-30T12:35:10;13.13;;;2.55;;
16286;SDS011;8251;53.568;10.018;2023-09-30T12:37:39;10.65;;;2.28;;
16286;SDS011;8251;53.568;10.018;2023-09-30T12:40:08;9.68;;;1.23;;
16286;SDS011;8251;53.568;10.018;2023-09-30T12:42:39;9.35;;;1.75;;
16286;SDS011;8251;53.568;10.018;2023-09-30T12:45:07;13.75;;;1.50;;
16286;SDS011;8251;53.568;10.018;2023-09-30T12:47:34;8.27;;;1.70;;
16286;SDS011;8251;53.568;10.018;2023-09-30T12:50:01;7.22;;;1.55;;
16286;SDS011;8251;53.568;10.018;2023-09-30T12:52:29;6.18;;;1.40;;
16286;SDS011;8251;53.568;10.018;2023-09-30T12:55:02;13.48;;;1.58;;
16286;SDS011;8251;53.568;10.018;2023-09-30T12:57:34;11.52;;;1.80;;
16286;SDS011;8251;53.568;10.018;2023-09-30T13:00:01;11.95;;;1.65;;
16286;SDS011;8251;53.568;10.018;2023-09-30T13:02:28;25.50;;;2.72;;
16286;SDS011;8251;53.568;10.018;2023-09-30T13:04:57;14.63;;;2.17;;
16286;SDS011;8251;53.568;10.018;2023-09-30T13:07:34;9.13;;;1.58;;
16286;SDS011;8251;53.568;10.018;2023-09-30T13:10:12;9.27;;;2.15;;
16286;SDS011;8251;53.568;10.018;2023-09-30T13:12:46;9.25;;;1.42;;
16286;SDS011;8251;53.568;10.018;2023-09-30T13:15:14;11.23;;;1.65;;
16286;SDS011;8251;53.568;10.018;2023-09-30T13:21:08;8.52;;;1.58;;
16286;SDS011;8251;53.568;10.018;2023-09-30T13:23:39;6.13;;;1.52;;
16286;SDS011;8251;53.568;10.018;2023-09-30T13:26:10;3.53;;;1.55;;
16286;SDS011;8251;53.568;10.018;2023-09-30T13:37:51;6.57;;;1.10;;
16286;SDS011;8251;53.568;10.018;2023-09-30T13:40:24;6.30;;;1.60;;
16286;SDS011;8251;53.568;10.018;2023-09-30T13:42:50;10.57;;;1.45;;
16286;SDS011;8251;53.568;10.018;2023-09-30T13:45:18;4.47;;;1.23;;
16286;SDS011;8251;53.568;10.018;2023-09-30T13:47:45;7.05;;;1.88;;
16286;SDS011;8251;53.568;10.018;2023-09-30T13:50:14;3.50;;;1.00;;
16286;SDS011;8251;53.568;10.018;2023-09-30T13:52:42;10.15;;;1.15;;
16286;SDS011;8251;53.568;10.018;2023-09-30T13:55:12;9.27;;;1.17;;
16286;SDS011;8251;53.568;10.018;2023-09-30T13:57:45;9.10;;;1.60;;
16286;SDS011;8251;53.568;10.018;2023-09-30T14:00:13;6.63;;;1.30;;
16286;SDS011;8251;53.568;10.018;2023-09-30T14:02:43;12.53;;;1.70;;
16286;SDS011;8251;53.568;10.018;2023-09-30T14:05:14;7.80;;;1.63;;
16286;SDS011;8251;53.568;10.018;2023-09-30T14:07:41;12.57;;;2.40;;
16286;SDS011;8251;53.568;10.018;2023-09-30T14:10:10;8.90;;;1.67;;
16286;SDS011;8251;53.568;10.018;2023-09-30T14:12:38;5.87;;;1.53;;
16286;SDS011;8251;53.568;10.018;2023-09-30T14:15:09;8.00;;;1.30;;
16286;SDS011;8251;53.568;10.018;2023-09-30T14:17:37;6.27;;;1.50;;
16286;SDS011;8251;53.568;10.018;2023-09-30T14:20:04;5.40;;;1.40;;
16286;SDS011;8251;53.568;10.018;2023-09-30T14:22:33;8.60;;;2.07;;
16286;SDS011;8251;53.568;10.018;2023-09-30T14:25:00;7.27;;;1.50;;
16286;SDS011;8251;53.568;10.018;2023-09-30T14:27:28;5.63;;;1.63;;
16286;SDS011;8251;53.568;10.018;2023-09-30T14:29:57;5.50;;;1.53;;
16286;SDS011;8251;53.568;10.018;2023-09-30T14:32:26;4.00;;;1.73;;
16286;SDS011;8251;53.568;10.018;2023-09-30T14:34:53;8.07;;;1.30;;
16286;SDS011;8251;53.568;10.018;2023-09-30T14:37:21;3.23;;;1.30;;
16286;SDS011;8251;53.568;10.018;2023-09-30T14:39:50;5.33;;;1.30;;
16286;SDS011;8251;53.568;10.018;2023-09-30T14:42:16;5.83;;;1.33;;
16286;SDS011;8251;53.568;10.018;2023-09-30T14:44:45;10.53;;;1.43;;
16286;SDS011;8251;53.568;10.018;2023-09-30T14:47:12;10.33;;;1.87;;
16286;SDS011;8251;53.568;10.018;2023-09-30T14:49:40;7.47;;;1.47;;
16286;SDS011;8251;53.568;10.018;2023-09-30T14:52:08;6.40;;;1.33;;
16286;SDS011;8251;53.568;10.018;2023-09-30T14:54:34;11.10;;;1.63;;
16286;SDS011;8251;53.568;10.018;2023-09-30T14:57:03;8.20;;;1.40;;
16286;SDS011;8251;53.568;10.018;2023-09-30T14:59:32;11.17;;;1.90;;
16286;SDS011;8251;53.568;10.018;2023-09-30T15:01:59;5.93;;;1.50;;
16286;SDS011;8251;53.568;10.018;2023-09-30T15:04:27;9.10;;;1.47;;
16286;SDS011;8251;53.568;10.018;2023-09-30T15:06:56;8.47;;;1.93;;
16286;SDS011;8251;53.568;10.018;2023-09-30T15:09:24;5.37;;;1.30;;
16286;SDS011;8251;53.568;10.018;2023-09-30T15:11:51;7.60;;;1.60;;
16286;SDS011;8251;53.568;10.018;2023-09-30T15:14:18;5.43;;;1.50;;
16286;SDS011;8251;53.568;10.018;2023-09-30T15:16:48;11.03;;;1.70;;
16286;SDS011;8251;53.568;10.018;2023-09-30T15:19:15;10.47;;;1.87;;
16286;SDS011;8251;53.568;10.018;2023-09-30T15:21:42;6.03;;;1.33;;
16286;SDS011;8251;53.568;10.018;2023-09-30T15:24:12;13.90;;;2.17;;